createdAt,value
2023-02-03T00:00:58.109Z,0.82
2023-02-03T00:03:26.238Z,0.82
2023-02-03T00:05:55.078Z,0.77
2023-02-03T00:08:24.339Z,0.77
2023-02-03T00:10:52.588Z,0.79
2023-02-03T00:13:21.147Z,0.77
2023-02-03T00:15:50.737Z,0.74
2023-02-03T00:18:18.889Z,0.75
2023-02-03T00:20:47.102Z,0.78
2023-02-03T00:23:15.298Z,0.77
2023-02-03T00:25:43.445Z,0.86
2023-02-03T00:28:11.669Z,0.85
2023-02-03T00:30:40.083Z,0.81
2023-02-03T00:33:09.787Z,0.86
2023-02-03T00:35:40.319Z,0.95
2023-02-03T00:38:08.387Z,1.07
2023-02-03T00:40:36.498Z,1.19
2023-02-03T00:43:04.596Z,1.23
2023-02-03T00:45:32.731Z,1.18
2023-02-03T00:48:00.908Z,1.16
2023-02-03T00:50:30.588Z,1.24
2023-02-03T00:52:59.851Z,1.24
2023-02-03T00:55:28.164Z,1.19
2023-02-03T00:57:56.267Z,1.09
2023-02-03T01:00:25.050Z,1.02
2023-02-03T01:02:53.434Z,1.00
2023-02-03T01:05:21.511Z,1.01
2023-02-03T01:07:51.165Z,0.94
2023-02-03T01:10:19.397Z,0.91
2023-02-03T01:12:47.561Z,0.86
2023-02-03T01:15:15.844Z,0.81
2023-02-03T01:17:44.190Z,0.69
2023-02-03T01:20:14.022Z,0.61
2023-02-03T01:22:42.115Z,0.61
2023-02-03T01:25:12.658Z,0.65
2023-02-03T01:27:40.865Z,0.59
2023-02-03T01:30:09.887Z,0.56
2023-02-03T01:32:38.230Z,0.60
2023-02-03T01:35:06.721Z,0.53
2023-02-03T01:37:34.856Z,0.53
2023-02-03T01:40:02.998Z,0.52
2023-02-03T01:42:34.860Z,0.55
2023-02-03T01:45:02.953Z,0.62
2023-02-03T01:47:34.405Z,0.67
2023-02-03T01:50:10.708Z,0.75
2023-02-03T01:52:40.577Z,0.82
2023-02-03T01:55:14.325Z,0.88
2023-02-03T01:57:49.176Z,0.97
2023-02-03T02:00:17.963Z,0.97
2023-02-03T02:02:49.170Z,0.97
2023-02-03T02:05:24.708Z,0.94
2023-02-03T02:07:53.534Z,0.93
2023-02-03T02:10:21.752Z,0.99
2023-02-03T02:12:51.648Z,0.90
2023-02-03T02:15:24.595Z,0.87
2023-02-03T02:18:14.607Z,0.82
2023-02-03T02:21:24.350Z,0.78
2023-02-03T02:24:23.247Z,0.82
2023-02-03T02:26:59.072Z,0.75
2023-02-03T02:30:20.659Z,0.72
2023-02-03T02:33:03.499Z,0.68
2023-02-03T02:35:46.590Z,0.67
2023-02-03T02:38:22.279Z,0.64
2023-02-03T02:40:55.084Z,0.59
2023-02-03T02:43:30.343Z,0.66
2023-02-03T02:46:04.090Z,0.65
2023-02-03T02:48:39.538Z,0.67
2023-02-03T02:51:12.390Z,0.61
2023-02-03T02:53:44.603Z,0.52
2023-02-03T02:56:15.643Z,0.43
2023-02-03T02:58:48.715Z,0.43
2023-02-03T03:01:18.095Z,0.46
2023-02-03T03:03:48.000Z,0.55
2023-02-03T03:06:20.869Z,0.63
2023-02-03T03:08:55.564Z,0.73
2023-02-03T03:11:26.330Z,0.87
2023-02-03T03:13:56.856Z,0.85
2023-02-03T03:16:27.414Z,0.82
2023-02-03T03:19:00.911Z,0.71
2023-02-03T03:21:33.797Z,0.72
2023-02-03T03:24:08.640Z,0.55
2023-02-03T03:26:40.239Z,0.42
2023-02-03T03:29:15.489Z,0.41
2023-02-03T03:31:44.491Z,0.42
2023-02-03T03:34:16.035Z,0.46
2023-02-03T03:36:47.671Z,0.43
2023-02-03T03:39:24.203Z,0.33
2023-02-03T03:42:00.110Z,0.37
2023-02-03T03:44:32.449Z,0.29
2023-02-03T03:47:08.850Z,0.32
2023-02-03T03:49:42.274Z,0.32
2023-02-03T03:52:11.892Z,0.30
2023-02-03T03:54:42.918Z,0.24
2023-02-03T03:57:17.282Z,0.20
2023-02-03T03:59:48.866Z,0.15
2023-02-03T04:02:20.367Z,0.13
2023-02-03T04:04:51.086Z,0.10
2023-02-03T04:07:20.346Z,0.11
2023-02-03T04:09:48.688Z,0.13
2023-02-03T04:12:24.203Z,0.12
2023-02-03T04:14:52.367Z,0.20
2023-02-03T04:17:20.715Z,0.16
2023-02-03T04:19:50.639Z,0.16
2023-02-03T04:22:18.851Z,0.10
2023-02-03T04:24:47.089Z,0.12
2023-02-03T04:27:15.211Z,0.07
2023-02-03T04:29:43.534Z,0.07
2023-02-03T04:32:11.861Z,0.09
2023-02-03T04:34:40.065Z,0.14
2023-02-03T04:37:09.915Z,0.11
2023-02-03T04:39:38.107Z,0.01
2023-02-03T04:42:06.412Z,0.03
2023-02-03T04:44:34.542Z,-0.10
2023-02-03T04:47:02.798Z,-0.06
2023-02-03T04:49:30.917Z,0.02
2023-02-03T04:51:59.467Z,-0.07
2023-02-03T04:54:29.114Z,-0.05
2023-02-03T04:56:57.390Z,-0.07
2023-02-03T04:59:25.512Z,-0.11
2023-02-03T05:01:54.052Z,-0.13
2023-02-03T05:04:22.207Z,-0.14
2023-02-03T05:06:50.440Z,-0.11
2023-02-03T05:09:18.750Z,-0.07
2023-02-03T05:11:48.372Z,-0.13
2023-02-03T05:14:16.703Z,-0.10
2023-02-03T05:16:46.200Z,-0.04
2023-02-03T05:19:14.940Z,-0.06
2023-02-03T05:21:43.092Z,-0.06
2023-02-03T05:24:12.469Z,-0.09
2023-02-03T05:26:40.597Z,-0.33
2023-02-03T05:29:11.831Z,-0.22
2023-02-03T05:31:40.200Z,-0.19
2023-02-03T05:34:08.622Z,-0.03
2023-02-03T05:36:36.739Z,0.19
2023-02-03T05:39:05.232Z,0.35
2023-02-03T05:41:50.992Z,0.61
2023-02-03T05:44:20.860Z,0.79
2023-02-03T05:46:49.810Z,0.89
2023-02-03T05:49:18.564Z,0.87
2023-02-03T05:51:47.343Z,0.80
2023-02-03T05:54:15.730Z,0.85
2023-02-03T05:56:43.909Z,0.69
2023-02-03T05:59:12.087Z,0.68
2023-02-03T06:01:41.865Z,0.96
2023-02-03T06:04:10.347Z,1.16
2023-02-03T06:06:38.662Z,1.36
2023-02-03T06:09:09.227Z,1.50
2023-02-03T06:11:37.634Z,1.55
2023-02-03T06:14:06.166Z,1.49
2023-02-03T06:16:34.378Z,1.56
2023-02-03T06:19:03.988Z,1.68
2023-02-03T06:21:32.147Z,1.51
2023-02-03T06:24:00.357Z,1.41
2023-02-03T06:26:28.453Z,1.29
2023-02-03T06:28:56.540Z,1.17
2023-02-03T06:31:24.869Z,1.04
2023-02-03T06:33:53.085Z,1.10
2023-02-03T06:36:22.735Z,1.09
2023-02-03T06:38:51.200Z,1.06
2023-02-03T06:41:19.425Z,1.02
2023-02-03T06:43:47.621Z,1.10
2023-02-03T06:46:15.777Z,1.16
2023-02-03T06:48:44.180Z,1.14
2023-02-03T06:51:12.336Z,1.16
2023-02-03T06:53:41.837Z,1.26
2023-02-03T06:56:10.221Z,1.30
2023-02-03T06:58:38.366Z,1.34
2023-02-03T07:01:06.746Z,1.44
2023-02-03T07:03:34.854Z,1.46
2023-02-03T07:06:03.062Z,1.56
2023-02-03T07:08:31.386Z,1.63
2023-02-03T07:11:00.901Z,1.65
2023-02-03T07:13:29.275Z,1.82
2023-02-03T07:15:57.530Z,1.85
2023-02-03T07:21:15.406Z,2.01
2023-02-03T07:23:43.882Z,2.08
2023-02-03T07:26:13.400Z,2.16
2023-02-03T07:28:41.696Z,2.18
2023-02-03T07:31:10.671Z,2.29
2023-02-03T07:33:39.388Z,2.39
2023-02-03T07:36:09.593Z,2.46
2023-02-03T07:38:38.958Z,2.50
2023-02-03T07:41:07.872Z,2.56
2023-02-03T07:43:37.725Z,2.66
2023-02-03T07:46:06.452Z,2.73
2023-02-03T07:48:34.639Z,2.88
2023-02-03T07:51:02.987Z,2.98
2023-02-03T07:53:31.490Z,3.12
2023-02-03T07:56:01.670Z,3.24
2023-02-03T07:58:30.342Z,3.43
2023-02-03T08:01:00.200Z,3.59
2023-02-03T08:03:28.501Z,3.70
2023-02-03T08:05:56.683Z,3.84
2023-02-03T08:08:24.870Z,3.86
2023-02-03T08:10:53.103Z,3.99
2023-02-03T08:13:21.214Z,4.13
2023-02-03T08:15:49.701Z,4.19
2023-02-03T08:18:19.994Z,4.32
2023-02-03T08:20:49.109Z,4.32
2023-02-03T08:23:17.422Z,4.46
2023-02-03T08:25:45.609Z,4.45
2023-02-03T08:28:13.872Z,4.56
2023-02-03T08:30:42.120Z,4.58
2023-02-03T08:33:10.294Z,4.60
2023-02-03T08:35:40.316Z,4.71
2023-02-03T08:38:08.480Z,4.73
2023-02-03T08:40:36.714Z,4.82
2023-02-03T08:43:04.954Z,4.82
2023-02-03T08:45:33.416Z,4.90
2023-02-03T08:48:01.484Z,5.02
2023-02-03T08:50:31.389Z,5.04
2023-02-03T08:53:01.223Z,5.17
2023-02-03T08:55:29.332Z,5.22
2023-02-03T08:57:57.490Z,5.27
2023-02-03T09:00:25.981Z,5.31
2023-02-03T09:02:54.286Z,5.37
2023-02-03T09:05:22.477Z,5.42
2023-02-03T09:07:50.686Z,5.53
2023-02-03T09:10:20.452Z,5.59
2023-02-03T09:12:48.634Z,5.55
2023-02-03T09:15:16.913Z,5.64
2023-02-03T09:17:45.424Z,5.66
2023-02-03T09:20:15.159Z,5.69
2023-02-03T09:22:43.443Z,5.74
2023-02-03T09:25:11.828Z,5.70
2023-02-03T09:27:41.395Z,5.61
2023-02-03T09:30:10.629Z,5.61
2023-02-03T09:32:39.132Z,5.64
2023-02-03T09:35:07.993Z,5.79
2023-02-03T09:37:37.021Z,5.75
2023-02-03T09:40:06.614Z,5.79
2023-02-03T09:43:03.313Z,5.89
2023-02-03T09:45:32.264Z,6.01
2023-02-03T09:48:07.536Z,5.94
2023-02-03T09:50:37.952Z,6.13
2023-02-03T09:53:14.219Z,6.16
2023-02-03T09:55:44.334Z,6.13
2023-02-03T09:58:15.761Z,6.14
2023-02-03T10:00:45.860Z,6.25
2023-02-03T10:03:26.626Z,6.36
2023-02-03T10:06:21.701Z,6.41
2023-02-03T10:09:02.792Z,6.19
2023-02-03T10:11:46.504Z,6.24
2023-02-03T10:14:33.192Z,6.30
2023-02-03T10:17:23.863Z,6.37
2023-02-03T10:19:56.937Z,6.43
2023-02-03T10:22:29.945Z,6.44
2023-02-03T10:25:02.155Z,6.31
2023-02-03T10:27:33.351Z,6.45
2023-02-03T10:30:07.841Z,6.43
2023-02-03T10:32:37.914Z,6.46
2023-02-03T10:35:12.342Z,6.46
2023-02-03T10:37:45.504Z,6.46
2023-02-03T10:40:15.614Z,6.43
2023-02-03T10:43:02.659Z,6.47
2023-02-03T10:45:37.989Z,6.42
2023-02-03T10:48:10.058Z,6.38
2023-02-03T10:50:43.739Z,6.46
2023-02-03T10:53:24.194Z,6.49
2023-02-03T10:56:02.466Z,6.38
2023-02-03T10:58:33.455Z,6.19
2023-02-03T11:01:11.683Z,6.21
2023-02-03T11:03:42.710Z,6.37
2023-02-03T11:06:13.402Z,6.36
2023-02-03T11:08:44.513Z,6.36
2023-02-03T11:11:16.460Z,6.32
2023-02-03T11:13:44.645Z,6.28
2023-02-03T11:16:17.236Z,6.16
2023-02-03T11:18:53.422Z,6.17
2023-02-03T11:21:23.872Z,6.32
2023-02-03T11:23:56.705Z,6.40
2023-02-03T11:26:29.424Z,6.54
2023-02-03T11:29:00.901Z,6.53
2023-02-03T11:31:32.840Z,6.54
2023-02-03T11:34:04.676Z,6.54
2023-02-03T11:36:35.443Z,6.46
2023-02-03T11:39:13.036Z,6.59
2023-02-03T11:41:41.782Z,6.55
2023-02-03T11:44:14.402Z,6.70
2023-02-03T11:46:44.930Z,6.84
2023-02-03T11:49:34.661Z,6.77
2023-02-03T11:52:17.995Z,6.86
2023-02-03T11:54:55.738Z,6.91
2023-02-03T11:57:35.283Z,7.27
2023-02-03T12:00:21.102Z,7.46
2023-02-03T12:03:15.922Z,7.24
2023-02-03T12:06:00.677Z,7.14
2023-02-03T12:08:45.536Z,7.33
2023-02-03T12:11:28.829Z,7.42
2023-02-03T12:14:09.391Z,7.34
2023-02-03T12:17:06.105Z,7.31
2023-02-03T12:19:47.556Z,6.91
2023-02-03T12:22:25.287Z,6.95
2023-02-03T12:25:00.834Z,7.10
2023-02-03T12:27:45.312Z,7.17
2023-02-03T12:30:21.876Z,7.29
2023-02-03T12:32:52.911Z,7.42
2023-02-03T12:35:26.749Z,7.55
2023-02-03T12:38:02.093Z,7.46
2023-02-03T12:40:37.535Z,7.52
2023-02-03T12:43:29.617Z,7.44
2023-02-03T12:46:04.995Z,6.99
2023-02-03T12:48:46.436Z,6.76
2023-02-03T12:51:22.940Z,6.74
2023-02-03T12:53:58.514Z,6.69
2023-02-03T12:56:31.038Z,6.72
2023-02-03T12:59:05.278Z,6.65
2023-02-03T13:01:38.005Z,6.61
2023-02-03T13:04:12.295Z,6.68
2023-02-03T13:06:50.475Z,6.73
2023-02-03T13:09:29.829Z,6.77
2023-02-03T13:12:05.492Z,6.87
2023-02-03T13:14:38.713Z,6.70
2023-02-03T13:17:14.609Z,6.65
2023-02-03T13:19:47.753Z,6.65
2023-02-03T13:22:18.455Z,6.60
2023-02-03T13:24:51.749Z,6.57
2023-02-03T13:27:39.570Z,6.52
2023-02-03T13:30:33.942Z,6.43
2023-02-03T13:33:36.474Z,6.43
2023-02-03T13:36:18.374Z,6.34
2023-02-03T13:39:07.608Z,6.37
2023-02-03T13:41:42.225Z,6.29
2023-02-03T13:44:15.072Z,6.30
2023-02-03T13:46:43.942Z,6.28
2023-02-03T13:49:24.586Z,6.39
2023-02-03T13:51:53.084Z,6.47
2023-02-03T13:54:29.931Z,6.46
2023-02-03T13:57:02.455Z,6.50
2023-02-03T13:59:41.186Z,6.63
2023-02-03T14:02:43.947Z,6.67
2023-02-03T14:05:40.311Z,6.54
2023-02-03T14:08:54.187Z,6.45
2023-02-03T14:11:45.848Z,6.54
2023-02-03T14:14:51.217Z,6.39
2023-02-03T14:17:58.609Z,6.15
2023-02-03T14:21:11.136Z,6.13
2023-02-03T14:23:53.784Z,6.03
2023-02-03T14:26:30.919Z,6.05
2023-02-03T14:29:01.829Z,5.77
2023-02-03T14:31:30.099Z,5.76
2023-02-03T14:34:13.478Z,5.71
2023-02-03T14:36:50.619Z,5.62
2023-02-03T14:39:56.355Z,5.62
2023-02-03T14:42:45.661Z,5.55
2023-02-03T14:45:31.165Z,5.56
2023-02-03T14:48:17.032Z,5.78
2023-02-03T14:50:59.812Z,5.49
2023-02-03T14:53:50.728Z,5.20
2023-02-03T14:56:30.426Z,5.09
2023-02-03T14:59:04.048Z,5.07
2023-02-03T15:02:05.113Z,5.09
2023-02-03T15:04:34.773Z,4.90
2023-02-03T15:07:02.920Z,4.69
2023-02-03T15:09:36.074Z,4.73
2023-02-03T15:12:17.271Z,4.72
2023-02-03T15:14:45.418Z,4.67
2023-02-03T15:17:22.592Z,4.57
2023-02-03T15:19:52.744Z,4.53
2023-02-03T15:22:22.501Z,4.27
2023-02-03T15:24:53.080Z,4.06
2023-02-03T15:27:24.455Z,3.92
2023-02-03T15:29:52.870Z,3.87
2023-02-03T15:32:29.079Z,3.77
2023-02-03T15:34:59.959Z,3.63
2023-02-03T15:37:33.690Z,3.16
2023-02-03T15:40:05.897Z,2.77
2023-02-03T15:42:39.240Z,2.50
2023-02-03T15:45:23.780Z,2.32
2023-02-03T15:47:56.185Z,2.08
2023-02-03T15:50:36.101Z,1.94
2023-02-03T15:53:08.138Z,1.93
2023-02-03T15:55:40.615Z,1.86
2023-02-03T15:58:20.178Z,1.79
2023-02-03T16:00:51.782Z,1.72
2023-02-03T16:03:27.042Z,1.49
2023-02-03T16:05:56.767Z,1.49
2023-02-03T16:08:41.911Z,1.41
2023-02-03T16:11:28.012Z,1.41
2023-02-03T16:13:57.626Z,1.29
2023-02-03T16:16:29.469Z,1.32
2023-02-03T16:19:00.130Z,1.39
2023-02-03T16:21:36.128Z,1.31
2023-02-03T16:24:06.425Z,1.23
2023-02-03T16:26:36.806Z,1.20
2023-02-03T16:29:32.076Z,1.31
2023-02-03T16:32:18.333Z,1.48
2023-02-03T16:35:05.014Z,1.61
2023-02-03T16:38:01.749Z,1.69
2023-02-03T16:40:47.286Z,1.75
2023-02-03T16:43:34.731Z,1.81
2023-02-03T16:46:20.830Z,1.88
2023-02-03T16:49:06.395Z,1.86
2023-02-03T16:51:41.068Z,1.83
2023-02-03T16:54:14.214Z,1.87
2023-02-03T16:56:43.024Z,1.77
2023-02-03T16:59:11.204Z,1.80
2023-02-03T17:01:39.406Z,1.87
2023-02-03T17:04:08.221Z,1.93
2023-02-03T17:06:39.021Z,1.97
2023-02-03T17:09:07.537Z,1.88
2023-02-03T17:11:37.112Z,1.84
2023-02-03T17:14:05.326Z,1.82
2023-02-03T17:16:33.968Z,1.74
2023-02-03T17:19:02.701Z,1.72
2023-02-03T17:21:31.116Z,1.59
2023-02-03T17:23:59.348Z,1.51
2023-02-03T17:26:27.841Z,1.33
2023-02-03T17:29:02.991Z,1.32
2023-02-03T17:31:31.916Z,1.34
2023-02-03T17:34:00.705Z,1.31
2023-02-03T17:36:28.931Z,1.32
2023-02-03T17:55:34.662Z,1.53
2023-02-03T17:58:02.973Z,1.59
2023-02-03T18:00:32.801Z,1.66
2023-02-03T18:03:00.987Z,1.67
2023-02-03T18:05:29.653Z,1.76
2023-02-03T18:08:01.113Z,1.89
2023-02-03T18:10:34.633Z,1.95
2023-02-03T18:13:03.222Z,1.95
2023-02-03T18:15:33.173Z,2.01
2023-02-03T18:18:01.282Z,2.05
2023-02-03T18:20:29.743Z,1.94
2023-02-03T18:22:57.930Z,2.00
2023-02-03T18:25:26.147Z,2.03
2023-02-03T18:27:54.425Z,2.11
2023-02-03T18:30:22.635Z,1.86
2023-02-03T18:32:53.479Z,1.86
2023-02-03T18:35:21.577Z,2.02
2023-02-03T18:37:49.863Z,2.09
2023-02-03T18:40:18.673Z,2.10
2023-02-03T18:42:46.824Z,2.12
2023-02-03T18:45:14.998Z,2.08
2023-02-03T18:47:43.359Z,2.06
2023-02-03T18:50:12.972Z,2.05
2023-02-03T18:52:41.262Z,1.98
2023-02-03T18:55:10.452Z,1.97
2023-02-03T18:57:38.570Z,1.86
2023-02-03T19:00:08.210Z,1.72
2023-02-03T19:02:36.978Z,1.72
2023-02-03T19:05:06.659Z,1.70
2023-02-03T19:07:36.182Z,1.77
2023-02-03T19:10:04.980Z,1.74
2023-02-03T19:12:33.057Z,1.75
2023-02-03T19:15:01.201Z,1.79
2023-02-03T19:17:29.347Z,2.02
2023-02-03T19:19:57.413Z,2.14
2023-02-03T19:22:25.530Z,2.28
2023-02-03T19:24:55.917Z,2.33
2023-02-03T19:27:24.083Z,2.43
2023-02-03T19:29:52.275Z,2.52
2023-02-03T19:32:20.535Z,2.59
2023-02-03T19:34:48.635Z,2.40
2023-02-03T19:37:17.064Z,2.24
2023-02-03T19:39:47.950Z,2.24
2023-02-03T19:42:17.495Z,2.08
2023-02-03T19:44:45.822Z,1.94
2023-02-03T19:47:13.972Z,1.83
2023-02-03T19:49:42.130Z,1.89
2023-02-03T19:52:10.427Z,1.89
2023-02-03T19:54:38.532Z,1.90
2023-02-03T19:57:06.666Z,1.84
2023-02-03T19:59:36.386Z,1.72
2023-02-03T20:02:13.681Z,1.56
2023-02-03T20:04:42.342Z,1.42
2023-02-03T20:07:10.601Z,1.31
2023-02-03T20:09:38.775Z,1.31
2023-02-03T20:12:07.241Z,1.30
2023-02-03T20:14:36.880Z,1.11
2023-02-03T20:17:06.273Z,1.12
2023-02-03T20:19:34.446Z,1.14
2023-02-03T20:22:02.649Z,1.09
2023-02-03T20:24:30.904Z,1.01
2023-02-03T20:26:59.229Z,0.91
2023-02-03T20:29:27.602Z,0.92
2023-02-03T20:31:58.802Z,0.84
2023-02-03T20:34:27.543Z,0.89
2023-02-03T20:36:58.610Z,0.95
2023-02-03T20:39:27.828Z,1.04
2023-02-03T20:41:56.092Z,1.03
2023-02-03T20:44:24.297Z,1.06
2023-02-03T20:46:55.901Z,0.87
2023-02-03T20:49:26.017Z,0.97
2023-02-03T20:51:54.295Z,0.84
2023-02-03T20:54:23.506Z,0.86
2023-02-03T20:56:51.660Z,0.91
2023-02-03T20:59:20.679Z,1.01
2023-02-03T21:01:50.641Z,0.98
2023-02-03T21:04:37.382Z,0.87
2023-02-03T21:07:15.048Z,0.85
2023-02-03T21:09:43.187Z,0.90
2023-02-03T21:12:13.133Z,0.82
2023-02-03T21:14:44.036Z,0.72
2023-02-03T21:17:20.199Z,0.69
2023-02-03T21:19:48.818Z,0.57
2023-02-03T21:22:21.587Z,0.66
2023-02-03T21:24:53.071Z,0.68
2023-02-03T21:27:27.243Z,0.64
2023-02-03T21:29:57.467Z,0.60
2023-02-03T21:32:35.338Z,0.63
2023-02-03T21:35:03.410Z,0.66
2023-02-03T21:37:41.571Z,0.59
2023-02-03T21:40:21.696Z,0.54
2023-02-03T21:42:49.952Z,0.49
2023-02-03T21:45:45.784Z,0.62
2023-02-03T21:48:30.912Z,0.58
2023-02-03T21:51:03.059Z,0.50
2023-02-03T21:53:35.770Z,0.40
2023-02-03T21:56:22.469Z,0.30
2023-02-03T21:58:52.108Z,0.33
2023-02-03T22:01:23.085Z,0.37
2023-02-03T22:03:52.655Z,0.25
2023-02-03T22:06:27.098Z,0.31
2023-02-03T22:08:58.870Z,0.33
2023-02-03T22:11:29.244Z,0.30
2023-02-03T22:13:58.250Z,0.32
2023-02-03T22:16:29.069Z,0.36
2023-02-03T22:18:58.470Z,0.40
2023-02-03T22:21:28.713Z,0.19
2023-02-03T22:23:58.409Z,0.30
2023-02-03T22:26:26.555Z,0.33
2023-02-03T22:28:55.006Z,0.12
2023-02-03T22:31:23.659Z,0.17
2023-02-03T22:33:51.867Z,0.21
2023-02-03T22:36:22.269Z,0.15
2023-02-03T22:38:50.760Z,0.17
2023-02-03T22:41:21.075Z,0.07
2023-02-03T22:43:49.269Z,0.02
2023-02-03T22:46:17.524Z,-0.09
2023-02-03T22:48:45.784Z,-0.24
2023-02-03T22:51:13.966Z,-0.28
2023-02-03T22:53:42.158Z,-0.37
2023-02-03T22:56:10.556Z,-0.34
2023-02-03T22:58:40.047Z,-0.36
2023-02-03T23:01:08.256Z,-0.49
2023-02-03T23:03:36.544Z,-0.59
2023-02-03T23:06:04.900Z,-0.67
2023-02-03T23:08:33.236Z,-0.69
2023-02-03T23:11:01.433Z,-0.74
2023-02-03T23:13:30.393Z,-0.76
2023-02-03T23:15:59.984Z,-0.70
2023-02-03T23:18:28.170Z,-0.64
2023-02-03T23:20:56.339Z,-0.60
2023-02-03T23:23:24.572Z,-0.52
2023-02-03T23:25:52.801Z,-0.48
2023-02-03T23:28:20.964Z,-0.48
2023-02-03T23:30:49.353Z,-0.52
2023-02-03T23:33:18.956Z,-0.56
2023-02-03T23:35:46.181Z,-0.48
2023-02-03T23:38:15.188Z,-0.41
2023-02-03T23:40:43.533Z,-0.40
2023-02-03T23:43:11.985Z,-0.42
2023-02-03T23:45:40.143Z,-0.46
2023-02-03T23:48:09.399Z,-0.54
2023-02-03T23:50:39.106Z,-0.59
2023-02-03T23:53:07.174Z,-0.62
2023-02-03T23:55:36.484Z,-0.60
2023-02-03T23:58:05.717Z,-0.69
